sensor_id;sensor_type;location;lat;lon;timestamp;temperature;humidity
9790;DHT22;4934;50.852;8.098;2022-08-20T00:02:23;19.70;99.90
9790;DHT22;4934;50.852;8.098;2022-08-20T00:04:49;19.70;99.90
9790;DHT22;4934;50.852;8.098;2022-08-20T00:07:15;19.70;99.90
9790;DHT22;4934;50.852;8.098;2022-08-20T00:09:41;19.70;99.90
9790;DHT22;4934;50.852;8.098;2022-08-20T00:12:09;19.80;99.90
9790;DHT22;4934;50.852;8.098;2022-08-20T00:14:35;19.70;99.90
9790;DHT22;4934;50.852;8.098;2022-08-20T00:17:02;19.80;99.90
9790;DHT22;4934;50.852;8.098;2022-08-20T00:19:28;19.80;99.90
9790;DHT22;4934;50.852;8.098;2022-08-20T00:21:54;19.90;99.90
9790;DHT22;4934;50.852;8.098;2022-08-20T00:24:19;19.80;99.90
9790;DHT22;4934;50.852;8.098;2022-08-20T00:26:45;19.70;99.90
9790;DHT22;4934;50.852;8.098;2022-08-20T00:29:10;19.70;99.90
9790;DHT22;4934;50.852;8.098;2022-08-20T00:31:36;19.70;99.90
9790;DHT22;4934;50.852;8.098;2022-08-20T00:34:02;19.70;99.90
9790;DHT22;4934;50.852;8.098;2022-08-20T00:36:27;19.80;99.90
9790;DHT22;4934;50.852;8.098;2022-08-20T00:38:53;19.80;99.90
9790;DHT22;4934;50.852;8.098;2022-08-20T00:41:22;19.70;99.90
9790;DHT22;4934;50.852;8.098;2022-08-20T00:43:51;19.70;99.90
9790;DHT22;4934;50.852;8.098;2022-08-20T00:46:26;19.70;99.90
9790;DHT22;4934;50.852;8.098;2022-08-20T00:48:54;19.80;99.90
9790;DHT22;4934;50.852;8.098;2022-08-20T00:51:28;19.80;99.90
9790;DHT22;4934;50.852;8.098;2022-08-20T00:54:01;19.70;99.90
9790;DHT22;4934;50.852;8.098;2022-08-20T00:56:29;19.70;99.90
9790;DHT22;4934;50.852;8.098;2022-08-20T00:58:58;19.70;99.90
9790;DHT22;4934;50.852;8.098;2022-08-20T01:01:24;19.70;99.90
9790;DHT22;4934;50.852;8.098;2022-08-20T01:03:49;19.70;99.90
9790;DHT22;4934;50.852;8.098;2022-08-20T01:06:17;19.70;99.90
9790;DHT22;4934;50.852;8.098;2022-08-20T01:08:43;19.70;99.90
9790;DHT22;4934;50.852;8.098;2022-08-20T01:11:08;19.60;99.90
9790;DHT22;4934;50.852;8.098;2022-08-20T01:13:38;19.60;99.90
9790;DHT22;4934;50.852;8.098;2022-08-20T01:16:12;19.60;99.90
9790;DHT22;4934;50.852;8.098;2022-08-20T01:18:39;19.60;99.90
9790;DHT22;4934;50.852;8.098;2022-08-20T01:21:05;19.60;99.90
9790;DHT22;4934;50.852;8.098;2022-08-20T01:23:45;19.60;99.90
9790;DHT22;4934;50.852;8.098;2022-08-20T01:26:17;19.50;99.90
9790;DHT22;4934;50.852;8.098;2022-08-20T01:29:14;19.60;99.90
9790;DHT22;4934;50.852;8.098;2022-08-20T01:31:41;19.60;99.90
9790;DHT22;4934;50.852;8.098;2022-08-20T01:34:11;19.60;99.90
9790;DHT22;4934;50.852;8.098;2022-08-20T01:36:43;19.60;99.90
9790;DHT22;4934;50.852;8.098;2022-08-20T01:39:12;19.60;99.90
9790;DHT22;4934;50.852;8.098;2022-08-20T01:44:28;19.60;99.90
9790;DHT22;4934;50.852;8.098;2022-08-20T01:46:55;19.60;99.90
9790;DHT22;4934;50.852;8.098;2022-08-20T01:49:25;19.50;99.90
9790;DHT22;4934;50.852;8.098;2022-08-20T01:51:54;19.40;99.90
9790;DHT22;4934;50.852;8.098;2022-08-20T01:54:21;19.40;99.90
9790;DHT22;4934;50.852;8.098;2022-08-20T01:57:11;19.50;99.90
9790;DHT22;4934;50.852;8.098;2022-08-20T01:59:38;19.40;99.90
9790;DHT22;4934;50.852;8.098;2022-08-20T02:02:03;19.40;99.90
9790;DHT22;4934;50.852;8.098;2022-08-20T02:04:29;19.50;99.90
9790;DHT22;4934;50.852;8.098;2022-08-20T02:06:58;19.40;99.90
9790;DHT22;4934;50.852;8.098;2022-08-20T02:09:26;19.30;99.90
9790;DHT22;4934;50.852;8.098;2022-08-20T02:11:52;19.30;99.90
9790;DHT22;4934;50.852;8.098;2022-08-20T02:14:18;19.30;99.90
9790;DHT22;4934;50.852;8.098;2022-08-20T02:16:45;19.40;99.90
9790;DHT22;4934;50.852;8.098;2022-08-20T02:19:38;19.40;99.90
9790;DHT22;4934;50.852;8.098;2022-08-20T02:24:43;19.30;99.90
9790;DHT22;4934;50.852;8.098;2022-08-20T02:27:09;19.30;99.90
9790;DHT22;4934;50.852;8.098;2022-08-20T02:29:35;19.40;99.90
9790;DHT22;4934;50.852;8.098;2022-08-20T02:32:01;19.30;99.90
9790;DHT22;4934;50.852;8.098;2022-08-20T02:34:26;19.40;99.90
9790;DHT22;4934;50.852;8.098;2022-08-20T02:36:52;19.30;99.90
9790;DHT22;4934;50.852;8.098;2022-08-20T02:39:18;19.30;99.90
9790;DHT22;4934;50.852;8.098;2022-08-20T02:41:44;19.30;99.90
9790;DHT22;4934;50.852;8.098;2022-08-20T02:44:09;19.30;99.90
9790;DHT22;4934;50.852;8.098;2022-08-20T02:46:35;19.30;99.90
9790;DHT22;4934;50.852;8.098;2022-08-20T02:49:01;19.30;99.90
9790;DHT22;4934;50.852;8.098;2022-08-20T02:51:27;19.20;99.90
9790;DHT22;4934;50.852;8.098;2022-08-20T02:53:52;19.30;99.90
9790;DHT22;4934;50.852;8.098;2022-08-20T02:56:18;19.30;99.90
9790;DHT22;4934;50.852;8.098;2022-08-20T02:58:44;19.30;99.90
9790;DHT22;4934;50.852;8.098;2022-08-20T03:01:13;19.30;99.90
9790;DHT22;4934;50.852;8.098;2022-08-20T03:03:41;19.30;99.90
9790;DHT22;4934;50.852;8.098;2022-08-20T03:06:08;19.30;99.90
9790;DHT22;4934;50.852;8.098;2022-08-20T03:08:35;19.30;99.90
9790;DHT22;4934;50.852;8.098;2022-08-20T03:11:00;19.30;99.90
9790;DHT22;4934;50.852;8.098;2022-08-20T03:13:26;19.20;99.90
9790;DHT22;4934;50.852;8.098;2022-08-20T03:15:54;19.20;99.90
9790;DHT22;4934;50.852;8.098;2022-08-20T03:18:22;19.20;99.90
9790;DHT22;4934;50.852;8.098;2022-08-20T03:20:48;19.20;99.90
9790;DHT22;4934;50.852;8.098;2022-08-20T03:23:15;19.20;99.90
9790;DHT22;4934;50.852;8.098;2022-08-20T03:25:42;19.10;99.90
9790;DHT22;4934;50.852;8.098;2022-08-20T03:28:08;19.10;99.90
9790;DHT22;4934;50.852;8.098;2022-08-20T03:30:34;19.10;99.90
9790;DHT22;4934;50.852;8.098;2022-08-20T03:33:00;19.00;99.90
9790;DHT22;4934;50.852;8.098;2022-08-20T03:35:28;19.00;99.90
9790;DHT22;4934;50.852;8.098;2022-08-20T03:37:54;19.00;99.90
9790;DHT22;4934;50.852;8.098;2022-08-20T03:40:28;19.00;99.90
9790;DHT22;4934;50.852;8.098;2022-08-20T03:42:53;19.00;99.90
9790;DHT22;4934;50.852;8.098;2022-08-20T03:45:20;18.90;99.90
9790;DHT22;4934;50.852;8.098;2022-08-20T03:47:47;18.90;99.90
9790;DHT22;4934;50.852;8.098;2022-08-20T03:50:13;18.90;99.90
9790;DHT22;4934;50.852;8.098;2022-08-20T03:52:39;18.90;99.90
9790;DHT22;4934;50.852;8.098;2022-08-20T03:55:08;19.00;99.90
9790;DHT22;4934;50.852;8.098;2022-08-20T03:57:34;19.00;99.90
9790;DHT22;4934;50.852;8.098;2022-08-20T04:00:03;19.00;99.90
9790;DHT22;4934;50.852;8.098;2022-08-20T04:02:29;18.90;99.90
9790;DHT22;4934;50.852;8.098;2022-08-20T04:04:54;18.90;99.90
9790;DHT22;4934;50.852;8.098;2022-08-20T04:07:23;18.90;99.90
9790;DHT22;4934;50.852;8.098;2022-08-20T04:09:55;18.90;99.90
9790;DHT22;4934;50.852;8.098;2022-08-20T04:12:21;18.90;99.90
9790;DHT22;4934;50.852;8.098;2022-08-20T04:14:48;18.80;99.90
9790;DHT22;4934;50.852;8.098;2022-08-20T04:17:15;18.80;99.90
9790;DHT22;4934;50.852;8.098;2022-08-20T04:19:42;18.80;99.90
9790;DHT22;4934;50.852;8.098;2022-08-20T04:22:09;18.80;99.90
9790;DHT22;4934;50.852;8.098;2022-08-20T04:24:38;18.70;99.90
9790;DHT22;4934;50.852;8.098;2022-08-20T04:27:05;18.80;99.90
9790;DHT22;4934;50.852;8.098;2022-08-20T04:29:33;18.70;99.90
9790;DHT22;4934;50.852;8.098;2022-08-20T04:32:00;18.70;99.90
9790;DHT22;4934;50.852;8.098;2022-08-20T04:34:26;18.60;99.90
9790;DHT22;4934;50.852;8.098;2022-08-20T04:36:53;18.60;99.90
9790;DHT22;4934;50.852;8.098;2022-08-20T04:39:18;18.60;99.90
9790;DHT22;4934;50.852;8.098;2022-08-20T04:41:44;18.60;99.90
9790;DHT22;4934;50.852;8.098;2022-08-20T04:44:10;18.50;99.90
9790;DHT22;4934;50.852;8.098;2022-08-20T04:46:37;18.60;99.90
9790;DHT22;4934;50.852;8.098;2022-08-20T04:49:04;18.60;99.90
9790;DHT22;4934;50.852;8.098;2022-08-20T04:51:30;18.50;99.90
9790;DHT22;4934;50.852;8.098;2022-08-20T04:53:57;18.50;99.90
9790;DHT22;4934;50.852;8.098;2022-08-20T04:56:28;18.60;99.90
9790;DHT22;4934;50.852;8.098;2022-08-20T04:58:59;18.60;99.90
9790;DHT22;4934;50.852;8.098;2022-08-20T05:01:26;18.40;99.90
9790;DHT22;4934;50.852;8.098;2022-08-20T05:03:52;18.50;99.90
9790;DHT22;4934;50.852;8.098;2022-08-20T05:06:20;18.60;99.90
9790;DHT22;4934;50.852;8.098;2022-08-20T05:08:48;18.60;99.90
9790;DHT22;4934;50.852;8.098;2022-08-20T05:11:13;18.70;99.90
9790;DHT22;4934;50.852;8.098;2022-08-20T05:13:39;18.70;99.90
9790;DHT22;4934;50.852;8.098;2022-08-20T05:16:05;18.70;99.90
9790;DHT22;4934;50.852;8.098;2022-08-20T05:18:31;18.70;99.90
9790;DHT22;4934;50.852;8.098;2022-08-20T05:21:00;18.70;99.90
9790;DHT22;4934;50.852;8.098;2022-08-20T05:23:31;18.60;99.90
9790;DHT22;4934;50.852;8.098;2022-08-20T05:25:57;18.60;99.90
9790;DHT22;4934;50.852;8.098;2022-08-20T05:28:25;18.60;99.90
9790;DHT22;4934;50.852;8.098;2022-08-20T05:30:52;18.70;99.90
9790;DHT22;4934;50.852;8.098;2022-08-20T05:33:20;18.60;99.90
9790;DHT22;4934;50.852;8.098;2022-08-20T05:35:47;18.70;99.90
9790;DHT22;4934;50.852;8.098;2022-08-20T05:38:15;18.70;99.90
9790;DHT22;4934;50.852;8.098;2022-08-20T05:40:42;18.70;99.90
9790;DHT22;4934;50.852;8.098;2022-08-20T05:43:08;18.70;99.90
9790;DHT22;4934;50.852;8.098;2022-08-20T05:45:36;18.60;99.90
9790;DHT22;4934;50.852;8.098;2022-08-20T05:48:07;18.60;99.90
9790;DHT22;4934;50.852;8.098;2022-08-20T05:50:36;18.70;99.90
9790;DHT22;4934;50.852;8.098;2022-08-20T05:53:02;18.60;99.90
9790;DHT22;4934;50.852;8.098;2022-08-20T05:55:29;18.70;99.90
9790;DHT22;4934;50.852;8.098;2022-08-20T05:58:00;18.70;99.90
9790;DHT22;4934;50.852;8.098;2022-08-20T06:00:28;18.90;99.90
9790;DHT22;4934;50.852;8.098;2022-08-20T06:02:54;19.00;99.90
9790;DHT22;4934;50.852;8.098;2022-08-20T06:05:38;19.00;99.90
9790;DHT22;4934;50.852;8.098;2022-08-20T06:08:05;19.00;99.90
9790;DHT22;4934;50.852;8.098;2022-08-20T06:10:31;19.10;99.90
9790;DHT22;4934;50.852;8.098;2022-08-20T06:12:57;19.20;99.90
9790;DHT22;4934;50.852;8.098;2022-08-20T06:15:23;19.00;99.90
9790;DHT22;4934;50.852;8.098;2022-08-20T06:17:48;19.00;99.90
9790;DHT22;4934;50.852;8.098;2022-08-20T06:20:14;19.20;99.90
9790;DHT22;4934;50.852;8.098;2022-08-20T06:22:39;19.20;99.90
9790;DHT22;4934;50.852;8.098;2022-08-20T06:25:06;19.40;99.90
9790;DHT22;4934;50.852;8.098;2022-08-20T06:27:32;19.70;99.90
9790;DHT22;4934;50.852;8.098;2022-08-20T06:29:58;20.00;99.90
9790;DHT22;4934;50.852;8.098;2022-08-20T06:32:24;20.30;99.90
9790;DHT22;4934;50.852;8.098;2022-08-20T06:34:51;20.60;99.90
9790;DHT22;4934;50.852;8.098;2022-08-20T06:37:24;20.70;99.90
9790;DHT22;4934;50.852;8.098;2022-08-20T06:39:50;20.80;99.90
9790;DHT22;4934;50.852;8.098;2022-08-20T06:42:17;20.60;99.90
9790;DHT22;4934;50.852;8.098;2022-08-20T06:44:44;20.60;99.90
9790;DHT22;4934;50.852;8.098;2022-08-20T06:47:16;20.50;99.90
9790;DHT22;4934;50.852;8.098;2022-08-20T06:49:42;20.80;99.90
9790;DHT22;4934;50.852;8.098;2022-08-20T06:52:08;20.90;99.90
9790;DHT22;4934;50.852;8.098;2022-08-20T06:54:34;21.00;99.90
9790;DHT22;4934;50.852;8.098;2022-08-20T06:57:01;21.20;99.90
9790;DHT22;4934;50.852;8.098;2022-08-20T06:59:27;21.50;99.90
9790;DHT22;4934;50.852;8.098;2022-08-20T07:01:53;21.70;99.90
9790;DHT22;4934;50.852;8.098;2022-08-20T07:04:24;21.50;99.90
9790;DHT22;4934;50.852;8.098;2022-08-20T07:06:51;21.90;99.90
9790;DHT22;4934;50.852;8.098;2022-08-20T07:09:18;21.60;99.90
9790;DHT22;4934;50.852;8.098;2022-08-20T07:11:44;22.00;99.90
9790;DHT22;4934;50.852;8.098;2022-08-20T07:14:10;22.00;99.90
9790;DHT22;4934;50.852;8.098;2022-08-20T07:16:36;21.90;99.90
9790;DHT22;4934;50.852;8.098;2022-08-20T07:19:02;21.80;99.90
9790;DHT22;4934;50.852;8.098;2022-08-20T07:21:28;21.60;99.90
9790;DHT22;4934;50.852;8.098;2022-08-20T07:23:55;21.60;99.90
9790;DHT22;4934;50.852;8.098;2022-08-20T07:26:21;21.60;99.90
9790;DHT22;4934;50.852;8.098;2022-08-20T07:28:47;21.50;99.90
9790;DHT22;4934;50.852;8.098;2022-08-20T07:31:13;21.50;99.90
9790;DHT22;4934;50.852;8.098;2022-08-20T07:33:59;21.40;99.90
9790;DHT22;4934;50.852;8.098;2022-08-20T07:36:24;21.40;99.90
9790;DHT22;4934;50.852;8.098;2022-08-20T07:38:50;21.30;99.90
9790;DHT22;4934;50.852;8.098;2022-08-20T07:41:18;21.30;99.90
9790;DHT22;4934;50.852;8.098;2022-08-20T07:43:47;21.20;99.90
9790;DHT22;4934;50.852;8.098;2022-08-20T07:46:20;21.10;99.90
9790;DHT22;4934;50.852;8.098;2022-08-20T07:48:46;21.10;99.90
9790;DHT22;4934;50.852;8.098;2022-08-20T07:51:15;21.00;99.90
9790;DHT22;4934;50.852;8.098;2022-08-20T07:53:44;20.90;99.90
9790;DHT22;4934;50.852;8.098;2022-08-20T07:56:15;20.90;99.90
9790;DHT22;4934;50.852;8.098;2022-08-20T07:58:45;21.00;99.90
9790;DHT22;4934;50.852;8.098;2022-08-20T08:01:18;21.00;99.90
9790;DHT22;4934;50.852;8.098;2022-08-20T08:03:44;20.90;99.90
9790;DHT22;4934;50.852;8.098;2022-08-20T08:06:10;21.00;99.90
9790;DHT22;4934;50.852;8.098;2022-08-20T08:08:37;21.00;99.90
9790;DHT22;4934;50.852;8.098;2022-08-20T08:11:04;20.80;99.90
9790;DHT22;4934;50.852;8.098;2022-08-20T08:13:33;20.80;99.90
9790;DHT22;4934;50.852;8.098;2022-08-20T08:16:01;20.60;99.90
9790;DHT22;4934;50.852;8.098;2022-08-20T08:18:47;20.50;99.90
9790;DHT22;4934;50.852;8.098;2022-08-20T08:21:15;20.30;99.90
9790;DHT22;4934;50.852;8.098;2022-08-20T08:23:42;20.00;99.90
9790;DHT22;4934;50.852;8.098;2022-08-20T08:26:10;19.90;99.90
9790;DHT22;4934;50.852;8.098;2022-08-20T08:28:39;19.70;99.90
9790;DHT22;4934;50.852;8.098;2022-08-20T08:31:06;19.80;99.90
9790;DHT22;4934;50.852;8.098;2022-08-20T08:33:31;19.80;99.90
9790;DHT22;4934;50.852;8.098;2022-08-20T08:38:23;19.80;99.90
9790;DHT22;4934;50.852;8.098;2022-08-20T08:40:51;19.70;99.90
9790;DHT22;4934;50.852;8.098;2022-08-20T08:43:24;19.70;99.90
9790;DHT22;4934;50.852;8.098;2022-08-20T08:46:03;19.70;99.90
9790;DHT22;4934;50.852;8.098;2022-08-20T08:48:51;19.60;99.90
9790;DHT22;4934;50.852;8.098;2022-08-20T08:51:28;19.30;99.90
9790;DHT22;4934;50.852;8.098;2022-08-20T08:53:54;19.20;99.90
9790;DHT22;4934;50.852;8.098;2022-08-20T08:56:27;19.30;99.90
9790;DHT22;4934;50.852;8.098;2022-08-20T08:58:57;19.50;99.90
9790;DHT22;4934;50.852;8.098;2022-08-20T09:01:24;19.70;99.90
9790;DHT22;4934;50.852;8.098;2022-08-20T09:03:51;19.70;99.90
9790;DHT22;4934;50.852;8.098;2022-08-20T09:06:21;19.90;99.90
9790;DHT22;4934;50.852;8.098;2022-08-20T09:08:56;20.00;99.90
9790;DHT22;4934;50.852;8.098;2022-08-20T09:11:24;20.00;99.90
9790;DHT22;4934;50.852;8.098;2022-08-20T09:13:50;19.90;99.90
9790;DHT22;4934;50.852;8.098;2022-08-20T09:16:18;20.00;99.90
9790;DHT22;4934;50.852;8.098;2022-08-20T09:18:44;19.90;99.90
9790;DHT22;4934;50.852;8.098;2022-08-20T09:21:09;19.80;99.90
9790;DHT22;4934;50.852;8.098;2022-08-20T09:23:35;20.00;99.90
9790;DHT22;4934;50.852;8.098;2022-08-20T09:26:01;20.10;99.90
9790;DHT22;4934;50.852;8.098;2022-08-20T09:28:26;20.10;99.90
9790;DHT22;4934;50.852;8.098;2022-08-20T09:30:52;20.20;99.90
9790;DHT22;4934;50.852;8.098;2022-08-20T09:33:18;20.20;99.90
9790;DHT22;4934;50.852;8.098;2022-08-20T09:35:44;20.20;99.90
9790;DHT22;4934;50.852;8.098;2022-08-20T09:38:11;20.20;99.90
9790;DHT22;4934;50.852;8.098;2022-08-20T09:40:37;20.20;99.90
9790;DHT22;4934;50.852;8.098;2022-08-20T09:43:07;20.20;99.90
9790;DHT22;4934;50.852;8.098;2022-08-20T09:45:33;20.10;99.90
9790;DHT22;4934;50.852;8.098;2022-08-20T09:47:59;20.10;99.90
9790;DHT22;4934;50.852;8.098;2022-08-20T09:50:26;20.40;99.90
9790;DHT22;4934;50.852;8.098;2022-08-20T09:52:53;20.50;99.90
9790;DHT22;4934;50.852;8.098;2022-08-20T09:55:36;20.70;99.90
9790;DHT22;4934;50.852;8.098;2022-08-20T09:58:06;20.70;99.90
9790;DHT22;4934;50.852;8.098;2022-08-20T10:00:33;20.80;99.90
9790;DHT22;4934;50.852;8.098;2022-08-20T10:02:59;20.90;99.90
9790;DHT22;4934;50.852;8.098;2022-08-20T10:05:26;21.10;99.90
9790;DHT22;4934;50.852;8.098;2022-08-20T10:07:51;21.20;99.90
9790;DHT22;4934;50.852;8.098;2022-08-20T10:10:17;21.30;99.90
9790;DHT22;4934;50.852;8.098;2022-08-20T10:12:43;21.30;99.90
9790;DHT22;4934;50.852;8.098;2022-08-20T10:15:12;21.20;99.90
9790;DHT22;4934;50.852;8.098;2022-08-20T10:17:39;21.00;99.90
9790;DHT22;4934;50.852;8.098;2022-08-20T10:20:06;20.80;99.90
9790;DHT22;4934;50.852;8.098;2022-08-20T10:22:33;20.80;99.90
9790;DHT22;4934;50.852;8.098;2022-08-20T10:24:59;21.20;99.90
9790;DHT22;4934;50.852;8.098;2022-08-20T10:27:24;21.20;99.90
9790;DHT22;4934;50.852;8.098;2022-08-20T10:29:50;21.00;99.90
9790;DHT22;4934;50.852;8.098;2022-08-20T10:32:16;21.10;99.90
9790;DHT22;4934;50.852;8.098;2022-08-20T10:34:43;21.10;99.90
9790;DHT22;4934;50.852;8.098;2022-08-20T10:37:13;20.80;99.90
9790;DHT22;4934;50.852;8.098;2022-08-20T10:39:39;20.80;99.90
9790;DHT22;4934;50.852;8.098;2022-08-20T10:42:05;21.00;99.90
9790;DHT22;4934;50.852;8.098;2022-08-20T10:44:31;21.10;99.90
9790;DHT22;4934;50.852;8.098;2022-08-20T10:46:56;21.30;99.90
9790;DHT22;4934;50.852;8.098;2022-08-20T10:49:22;21.50;99.90
9790;DHT22;4934;50.852;8.098;2022-08-20T10:51:48;21.50;99.90
9790;DHT22;4934;50.852;8.098;2022-08-20T10:54:13;21.60;99.90
9790;DHT22;4934;50.852;8.098;2022-08-20T10:56:40;21.50;99.90
9790;DHT22;4934;50.852;8.098;2022-08-20T10:59:05;21.80;99.90
9790;DHT22;4934;50.852;8.098;2022-08-20T11:01:31;21.80;99.90
9790;DHT22;4934;50.852;8.098;2022-08-20T11:03:58;22.30;99.90
9790;DHT22;4934;50.852;8.098;2022-08-20T11:06:26;22.70;99.90
9790;DHT22;4934;50.852;8.098;2022-08-20T11:08:54;22.70;99.90
9790;DHT22;4934;50.852;8.098;2022-08-20T11:11:30;22.30;99.90
9790;DHT22;4934;50.852;8.098;2022-08-20T11:13:56;22.00;99.90
9790;DHT22;4934;50.852;8.098;2022-08-20T11:16:22;22.00;99.90
9790;DHT22;4934;50.852;8.098;2022-08-20T11:18:48;22.40;99.90
9790;DHT22;4934;50.852;8.098;2022-08-20T11:21:14;22.60;99.90
9790;DHT22;4934;50.852;8.098;2022-08-20T11:23:39;22.80;99.90
9790;DHT22;4934;50.852;8.098;2022-08-20T11:26:07;22.70;99.90
9790;DHT22;4934;50.852;8.098;2022-08-20T11:28:33;22.40;99.90
9790;DHT22;4934;50.852;8.098;2022-08-20T11:31:00;22.30;99.90
9790;DHT22;4934;50.852;8.098;2022-08-20T11:33:26;22.10;99.90
9790;DHT22;4934;50.852;8.098;2022-08-20T11:35:52;22.00;99.90
9790;DHT22;4934;50.852;8.098;2022-08-20T11:38:19;21.60;99.90
9790;DHT22;4934;50.852;8.098;2022-08-20T11:40:45;21.20;99.90
9790;DHT22;4934;50.852;8.098;2022-08-20T11:43:15;21.10;99.90
9790;DHT22;4934;50.852;8.098;2022-08-20T11:45:41;21.20;99.90
9790;DHT22;4934;50.852;8.098;2022-08-20T11:48:07;21.50;99.90
9790;DHT22;4934;50.852;8.098;2022-08-20T11:50:33;21.90;99.90
9790;DHT22;4934;50.852;8.098;2022-08-20T11:53:00;22.00;99.90
9790;DHT22;4934;50.852;8.098;2022-08-20T11:55:25;21.90;99.90
9790;DHT22;4934;50.852;8.098;2022-08-20T11:57:51;22.20;99.90
9790;DHT22;4934;50.852;8.098;2022-08-20T12:00:21;22.10;99.90
9790;DHT22;4934;50.852;8.098;2022-08-20T12:02:48;22.50;99.90
9790;DHT22;4934;50.852;8.098;2022-08-20T12:05:17;22.80;99.90
9790;DHT22;4934;50.852;8.098;2022-08-20T12:07:43;23.00;99.90
9790;DHT22;4934;50.852;8.098;2022-08-20T12:10:09;22.90;99.90
9790;DHT22;4934;50.852;8.098;2022-08-20T12:12:36;22.30;99.90
9790;DHT22;4934;50.852;8.098;2022-08-20T12:15:04;22.70;99.90
9790;DHT22;4934;50.852;8.098;2022-08-20T12:17:30;23.00;99.90
9790;DHT22;4934;50.852;8.098;2022-08-20T12:19:58;23.20;99.90
9790;DHT22;4934;50.852;8.098;2022-08-20T12:22:25;23.30;99.90
9790;DHT22;4934;50.852;8.098;2022-08-20T12:24:52;23.50;99.90
9790;DHT22;4934;50.852;8.098;2022-08-20T12:27:24;23.20;99.90
9790;DHT22;4934;50.852;8.098;2022-08-20T12:29:53;23.80;99.90
9790;DHT22;4934;50.852;8.098;2022-08-20T12:32:20;23.40;99.90
9790;DHT22;4934;50.852;8.098;2022-08-20T12:34:50;23.00;99.90
9790;DHT22;4934;50.852;8.098;2022-08-20T12:37:18;23.10;99.90
9790;DHT22;4934;50.852;8.098;2022-08-20T12:39:47;23.30;99.90
9790;DHT22;4934;50.852;8.098;2022-08-20T12:42:13;23.60;99.90
9790;DHT22;4934;50.852;8.098;2022-08-20T12:44:41;24.10;99.90
9790;DHT22;4934;50.852;8.098;2022-08-20T12:47:19;24.30;99.90
9790;DHT22;4934;50.852;8.098;2022-08-20T12:49:48;23.90;99.90
9790;DHT22;4934;50.852;8.098;2022-08-20T12:52:15;23.80;99.90
9790;DHT22;4934;50.852;8.098;2022-08-20T12:54:42;23.80;99.90
9790;DHT22;4934;50.852;8.098;2022-08-20T12:57:37;23.90;99.90
9790;DHT22;4934;50.852;8.098;2022-08-20T13:00:10;23.40;99.90
9790;DHT22;4934;50.852;8.098;2022-08-20T13:02:36;23.00;99.90
9790;DHT22;4934;50.852;8.098;2022-08-20T13:05:04;23.10;99.90
9790;DHT22;4934;50.852;8.098;2022-08-20T13:07:30;23.60;99.90
9790;DHT22;4934;50.852;8.098;2022-08-20T13:09:57;23.80;99.90
9790;DHT22;4934;50.852;8.098;2022-08-20T13:12:23;23.70;99.90
9790;DHT22;4934;50.852;8.098;2022-08-20T13:14:49;23.50;99.90
9790;DHT22;4934;50.852;8.098;2022-08-20T13:17:16;23.70;99.90
9790;DHT22;4934;50.852;8.098;2022-08-20T13:19:42;24.00;99.90
9790;DHT22;4934;50.852;8.098;2022-08-20T13:22:10;23.90;99.90
9790;DHT22;4934;50.852;8.098;2022-08-20T13:24:36;23.20;99.90
9790;DHT22;4934;50.852;8.098;2022-08-20T13:27:13;23.20;99.90
9790;DHT22;4934;50.852;8.098;2022-08-20T13:29:46;23.00;99.90
9790;DHT22;4934;50.852;8.098;2022-08-20T13:32:12;23.50;99.90
9790;DHT22;4934;50.852;8.098;2022-08-20T13:34:38;23.20;99.90
9790;DHT22;4934;50.852;8.098;2022-08-20T13:37:17;22.90;99.90
9790;DHT22;4934;50.852;8.098;2022-08-20T13:39:44;22.40;99.90
9790;DHT22;4934;50.852;8.098;2022-08-20T13:42:10;22.60;99.90
9790;DHT22;4934;50.852;8.098;2022-08-20T13:44:37;22.40;99.90
9790;DHT22;4934;50.852;8.098;2022-08-20T13:47:28;22.60;99.90
9790;DHT22;4934;50.852;8.098;2022-08-20T13:50:06;22.60;99.90
9790;DHT22;4934;50.852;8.098;2022-08-20T13:52:34;22.50;99.90
9790;DHT22;4934;50.852;8.098;2022-08-20T13:55:00;22.70;99.90
9790;DHT22;4934;50.852;8.098;2022-08-20T13:57:26;22.60;99.90
9790;DHT22;4934;50.852;8.098;2022-08-20T13:59:54;22.90;99.90
9790;DHT22;4934;50.852;8.098;2022-08-20T14:02:20;22.90;99.90
9790;DHT22;4934;50.852;8.098;2022-08-20T14:04:46;23.10;99.90
9790;DHT22;4934;50.852;8.098;2022-08-20T14:07:13;23.00;99.90
9790;DHT22;4934;50.852;8.098;2022-08-20T14:09:42;23.10;99.90
9790;DHT22;4934;50.852;8.098;2022-08-20T14:12:09;22.60;99.90
9790;DHT22;4934;50.852;8.098;2022-08-20T14:14:35;22.80;99.90
9790;DHT22;4934;50.852;8.098;2022-08-20T14:17:24;22.90;99.90
9790;DHT22;4934;50.852;8.098;2022-08-20T14:19:52;23.40;99.90
9790;DHT22;4934;50.852;8.098;2022-08-20T14:22:18;23.90;99.90
9790;DHT22;4934;50.852;8.098;2022-08-20T14:24:45;23.80;99.90
9790;DHT22;4934;50.852;8.098;2022-08-20T14:27:12;23.70;99.90
9790;DHT22;4934;50.852;8.098;2022-08-20T14:29:40;23.40;99.90
9790;DHT22;4934;50.852;8.098;2022-08-20T14:32:07;23.30;99.90
9790;DHT22;4934;50.852;8.098;2022-08-20T14:34:33;23.40;99.90
9790;DHT22;4934;50.852;8.098;2022-08-20T14:37:18;23.50;99.90
9790;DHT22;4934;50.852;8.098;2022-08-20T14:39:46;23.40;99.90
9790;DHT22;4934;50.852;8.098;2022-08-20T14:42:12;23.50;99.90
9790;DHT22;4934;50.852;8.098;2022-08-20T14:44:38;23.60;99.90
9790;DHT22;4934;50.852;8.098;2022-08-20T14:47:15;23.20;99.90
9790;DHT22;4934;50.852;8.098;2022-08-20T14:49:42;23.40;99.90
9790;DHT22;4934;50.852;8.098;2022-08-20T14:52:09;23.50;99.90
9790;DHT22;4934;50.852;8.098;2022-08-20T14:54:36;23.60;99.90
9790;DHT22;4934;50.852;8.098;2022-08-20T14:57:02;23.70;99.90
9790;DHT22;4934;50.852;8.098;2022-08-20T14:59:29;23.70;99.90
9790;DHT22;4934;50.852;8.098;2022-08-20T15:01:54;23.80;99.90
9790;DHT22;4934;50.852;8.098;2022-08-20T15:04:20;24.00;99.90
9790;DHT22;4934;50.852;8.098;2022-08-20T15:06:46;24.30;99.90
9790;DHT22;4934;50.852;8.098;2022-08-20T15:09:12;24.20;99.90
9790;DHT22;4934;50.852;8.098;2022-08-20T15:11:37;24.20;99.90
9790;DHT22;4934;50.852;8.098;2022-08-20T15:14:08;24.20;99.90
9790;DHT22;4934;50.852;8.098;2022-08-20T15:16:34;23.70;99.90
9790;DHT22;4934;50.852;8.098;2022-08-20T15:19:00;23.80;99.90
9790;DHT22;4934;50.852;8.098;2022-08-20T15:21:26;23.90;99.90
9790;DHT22;4934;50.852;8.098;2022-08-20T15:23:52;24.10;99.90
9790;DHT22;4934;50.852;8.098;2022-08-20T15:26:18;24.20;99.90
9790;DHT22;4934;50.852;8.098;2022-08-20T15:28:43;24.50;99.90
9790;DHT22;4934;50.852;8.098;2022-08-20T15:31:10;24.70;99.90
9790;DHT22;4934;50.852;8.098;2022-08-20T15:33:37;24.90;99.90
9790;DHT22;4934;50.852;8.098;2022-08-20T15:36:04;25.00;99.90
9790;DHT22;4934;50.852;8.098;2022-08-20T15:38:30;25.20;99.90
9790;DHT22;4934;50.852;8.098;2022-08-20T15:40:57;24.90;99.90
9790;DHT22;4934;50.852;8.098;2022-08-20T15:43:26;24.50;99.90
9790;DHT22;4934;50.852;8.098;2022-08-20T15:45:51;24.40;99.90
9790;DHT22;4934;50.852;8.098;2022-08-20T15:48:20;24.20;99.90
9790;DHT22;4934;50.852;8.098;2022-08-20T15:53:42;23.70;99.90
9790;DHT22;4934;50.852;8.098;2022-08-20T15:59:21;24.00;99.90
9790;DHT22;4934;50.852;8.098;2022-08-20T16:07:19;24.40;99.90
9790;DHT22;4934;50.852;8.098;2022-08-20T16:10:11;24.20;99.90
9790;DHT22;4934;50.852;8.098;2022-08-20T16:12:42;24.20;99.90
9790;DHT22;4934;50.852;8.098;2022-08-20T16:15:12;23.90;99.90
9790;DHT22;4934;50.852;8.098;2022-08-20T16:18:07;23.50;99.90
9790;DHT22;4934;50.852;8.098;2022-08-20T16:20:43;23.40;99.90
9790;DHT22;4934;50.852;8.098;2022-08-20T16:23:11;23.40;99.90
9790;DHT22;4934;50.852;8.098;2022-08-20T16:26:09;23.40;99.90
9790;DHT22;4934;50.852;8.098;2022-08-20T16:31:34;23.50;99.90